Time;durP1;ratioP1;P1;durP2;ratioP2;P2;SDS_P1;SDS_P2;PMS_P1;PMS_P2;Temp;Humidity;BMP_temperature;BMP_pressure;BME280_temperature;BME280_humidity;BME280_pressure;Samples;Min_cycle;Max_cycle;Signal;HPM_P1;HPM_P2
2022/03/02 00:00:49;;;;;;;130.93;39.85;;;;;;;;;;6255262;28;20059;-61
2022/03/02 00:03:50;;;;;;;128.30;37.50;;;;;;;;;;6264870;28;20045;-62
2022/03/02 00:06:51;;;;;;;121.05;41.33;;;;;;;;;;6265020;28;20136;-60
2022/03/02 00:09:51;;;;;;;118.88;39.17;;;;;;;;;;6266171;28;20067;-59
2022/03/02 00:12:52;;;;;;;102.03;35.33;;;;;;;;;;6262378;28;20081;-59
2022/03/02 00:15:53;;;;;;;108.10;36.35;;;;;;;;;;6261088;28;20512;-59
2022/03/02 00:18:53;;;;;;;113.07;36.17;;;;;;;;;;6263290;28;20135;-61
2022/03/02 00:21:55;;;;;;;107.47;34.45;;;;;;;;;;6262749;28;20049;-61
2022/03/02 00:24:55;;;;;;;109.22;35.97;;;;;;;;;;6264766;28;20063;-60
2022/03/02 00:27:56;;;;;;;109.10;35.55;;;;;;;;;;6253267;28;20484;-61
2022/03/02 00:30:57;;;;;;;108.75;34.83;;;;;;;;;;6233354;28;20129;-61
2022/03/02 00:33:58;;;;;;;111.95;36.05;;;;;;;;;;6230800;28;20381;-61
2022/03/02 00:36:58;;;;;;;97.28;33.30;;;;;;;;;;6233817;28;20069;-60
2022/03/02 00:39:59;;;;;;;96.18;32.17;;;;;;;;;;6232285;28;20402;-60
2022/03/02 00:42:59;;;;;;;89.32;30.45;;;;;;;;;;6229028;28;20087;-60
2022/03/02 00:46:00;;;;;;;89.47;30.20;;;;;;;;;;6232117;28;20053;-61
2022/03/02 00:49:02;;;;;;;92.25;31.60;;;;;;;;;;6235629;28;20623;-57
2022/03/02 00:52:04;;;;;;;93.80;31.42;;;;;;;;;;6229782;28;20492;-58
2022/03/02 00:55:05;;;;;;;100.90;32.75;;;;;;;;;;6234223;28;20103;-61
2022/03/02 00:58:06;;;;;;;105.60;33.25;;;;;;;;;;6228418;28;20068;-60
2022/03/02 01:01:07;;;;;;;109.30;35.08;;;;;;;;;;6227560;28;20049;-60
2022/03/02 01:04:08;;;;;;;106.55;34.70;;;;;;;;;;6228438;28;20077;-60
2022/03/02 01:07:09;;;;;;;107.22;35.03;;;;;;;;;;6226778;28;20057;-60
2022/03/02 01:10:10;;;;;;;108.28;34.78;;;;;;;;;;6229379;28;20076;-60
2022/03/02 01:13:10;;;;;;;104.43;35.03;;;;;;;;;;6232014;28;20805;-60
2022/03/02 01:16:11;;;;;;;105.18;35.40;;;;;;;;;;6237567;28;20072;-59
2022/03/02 01:19:12;;;;;;;112.38;37.70;;;;;;;;;;6237808;28;20118;-59
2022/03/02 01:22:13;;;;;;;115.82;39.85;;;;;;;;;;6233426;28;20047;-59
2022/03/02 01:25:14;;;;;;;130.68;43.50;;;;;;;;;;6238567;28;20061;-58
2022/03/02 01:28:14;;;;;;;144.50;49.10;;;;;;;;;;6235359;28;20049;-60
2022/03/02 01:31:15;;;;;;;143.70;49.13;;;;;;;;;;6231881;28;20044;-60
2022/03/02 01:34:16;;;;;;;130.57;48.05;;;;;;;;;;6233201;28;22010;-61
2022/03/02 01:37:17;;;;;;;153.25;49.47;;;;;;;;;;6231292;28;20045;-61
2022/03/02 01:40:17;;;;;;;140.15;47.50;;;;;;;;;;6228927;28;20053;-59
2022/03/02 01:43:18;;;;;;;132.82;46.13;;;;;;;;;;6243033;28;20106;-61
2022/03/02 01:46:20;;;;;;;142.45;47.50;;;;;;;;;;6244585;28;20084;-58
2022/03/02 01:49:20;;;;;;;130.50;43.30;;;;;;;;;;6246615;28;20118;-61
2022/03/02 01:52:21;;;;;;;135.10;46.35;;;;;;;;;;6242182;28;20046;-59
2022/03/02 01:55:23;;;;;;;145.60;48.88;;;;;;;;;;6241288;28;20148;-59
2022/03/02 01:58:24;;;;;;;135.38;44.97;;;;;;;;;;6236836;28;20081;-59
2022/03/02 02:01:26;;;;;;;131.50;46.10;;;;;;;;;;6238541;28;20046;-61
2022/03/02 02:04:27;;;;;;;128.15;44.90;;;;;;;;;;6232569;28;20095;-60
2022/03/02 02:07:27;;;;;;;140.10;45.00;;;;;;;;;;6241067;28;20045;-60
2022/03/02 02:10:28;;;;;;;119.00;43.13;;;;;;;;;;6237470;28;20112;-60
2022/03/02 02:13:34;;;;;;;133.95;45.60;;;;;;;;;;6241544;28;20041;-59
2022/03/02 02:16:35;;;;;;;140.05;45.10;;;;;;;;;;6236015;28;20092;-59
2022/03/02 02:19:35;;;;;;;133.45;44.40;;;;;;;;;;6235761;28;20042;-59
2022/03/02 02:22:38;;;;;;;137.30;44.33;;;;;;;;;;6241520;28;20063;-58
2022/03/02 02:25:39;;;;;;;125.10;42.47;;;;;;;;;;6238543;28;20091;-59
2022/03/02 02:28:40;;;;;;;136.32;44.13;;;;;;;;;;6238183;28;20050;-59
2022/03/02 02:31:41;;;;;;;128.20;43.15;;;;;;;;;;6242416;28;20057;-58
2022/03/02 02:34:42;;;;;;;124.75;44.13;;;;;;;;;;6237359;28;20049;-61
2022/03/02 02:37:44;;;;;;;133.75;45.22;;;;;;;;;;6242305;28;20052;-60
2022/03/02 02:40:45;;;;;;;128.27;43.95;;;;;;;;;;6235590;28;20497;-60
2022/03/02 02:43:46;;;;;;;119.22;43.70;;;;;;;;;;6239674;28;20152;-60
2022/03/02 02:46:47;;;;;;;134.48;43.58;;;;;;;;;;6240932;28;20150;-60
2022/03/02 02:49:47;;;;;;;134.85;42.20;;;;;;;;;;6233200;28;20120;-60
2022/03/02 02:52:50;;;;;;;121.82;42.15;;;;;;;;;;6240945;28;20041;-60
2022/03/02 02:55:52;;;;;;;126.88;42.25;;;;;;;;;;6240571;28;20052;-61
2022/03/02 02:58:53;;;;;;;117.63;40.28;;;;;;;;;;6233655;28;20477;-60
2022/03/02 03:01:53;;;;;;;135.20;42.42;;;;;;;;;;6232127;28;20140;-60
2022/03/02 03:04:54;;;;;;;124.60;42.40;;;;;;;;;;6231793;28;20119;-60
2022/03/02 03:07:56;;;;;;;129.40;42.70;;;;;;;;;;6238914;28;20487;-60
2022/03/02 03:10:57;;;;;;;;;;;;;;;;;;6238223;28;20725;-60
2022/03/02 03:13:58;;;;;;;115.72;40.10;;;;;;;;;;6235491;28;20023;-61
2022/03/02 03:16:59;;;;;;;113.85;39.67;;;;;;;;;;6235287;28;20065;-60
2022/03/02 03:19:59;;;;;;;123.63;39.60;;;;;;;;;;6234315;28;20041;-59
2022/03/02 03:23:00;;;;;;;107.20;37.85;;;;;;;;;;6237282;28;20107;-60
2022/03/02 03:26:01;;;;;;;115.63;40.58;;;;;;;;;;6236467;28;20580;-61
2022/03/02 03:29:02;;;;;;;114.00;41.13;;;;;;;;;;6234210;28;20615;-60
2022/03/02 03:32:03;;;;;;;110.28;37.67;;;;;;;;;;6240265;28;20172;-59
2022/03/02 03:35:06;;;;;;;118.93;39.20;;;;;;;;;;6233829;28;20041;-58
2022/03/02 03:38:07;;;;;;;114.43;39.80;;;;;;;;;;6231577;28;20045;-60
2022/03/02 03:41:07;;;;;;;110.88;38.67;;;;;;;;;;6235015;28;20132;-60
2022/03/02 03:44:08;;;;;;;108.22;38.42;;;;;;;;;;6234643;28;20125;-61
2022/03/02 03:47:09;;;;;;;103.75;39.28;;;;;;;;;;6233410;28;20081;-59
2022/03/02 03:50:10;;;;;;;121.25;43.10;;;;;;;;;;6234235;28;20137;-58
2022/03/02 03:53:12;;;;;;;110.50;40.57;;;;;;;;;;6237963;28;20042;-60
2022/03/02 03:56:12;;;;;;;114.85;40.63;;;;;;;;;;6235426;28;20497;-61
2022/03/02 03:59:13;;;;;;;106.13;39.70;;;;;;;;;;6232777;28;20104;-61
2022/03/02 04:02:14;;;;;;;110.03;38.15;;;;;;;;;;6232003;28;20485;-60
2022/03/02 04:05:15;;;;;;;109.20;39.83;;;;;;;;;;6231718;28;20046;-60
2022/03/02 04:08:15;;;;;;;101.75;39.13;;;;;;;;;;6227015;28;20152;-60
2022/03/02 04:11:16;;;;;;;113.03;38.92;;;;;;;;;;6230152;28;20495;-59
2022/03/02 04:14:17;;;;;;;119.97;39.33;;;;;;;;;;6234233;28;20152;-60
2022/03/02 04:17:18;;;;;;;112.15;38.63;;;;;;;;;;6241800;28;20455;-61
2022/03/02 04:20:19;;;;;;;109.20;40.22;;;;;;;;;;6234048;28;20132;-61
2022/03/02 04:23:21;;;;;;;104.18;37.42;;;;;;;;;;6232672;28;20049;-61
2022/03/02 04:26:22;;;;;;;103.35;36.28;;;;;;;;;;6233155;28;20049;-60
2022/03/02 04:29:23;;;;;;;103.80;38.40;;;;;;;;;;6232047;28;20057;-60
2022/03/02 04:32:23;;;;;;;107.43;38.20;;;;;;;;;;6230796;28;20132;-60
2022/03/02 04:35:24;;;;;;;115.25;40.75;;;;;;;;;;6229869;28;20077;-60
2022/03/02 04:38:25;;;;;;;108.32;39.83;;;;;;;;;;6232247;28;20140;-60
2022/03/02 04:41:26;;;;;;;108.25;38.47;;;;;;;;;;6232260;28;20042;-60
2022/03/02 04:44:27;;;;;;;100.75;37.90;;;;;;;;;;6232801;28;20144;-58
2022/03/02 04:47:28;;;;;;;113.60;39.03;;;;;;;;;;6237384;28;20072;-58
2022/03/02 04:50:28;;;;;;;102.50;36.35;;;;;;;;;;6249276;28;20041;-58
2022/03/02 04:53:29;;;;;;;99.30;36.60;;;;;;;;;;6233185;28;20045;-59
2022/03/02 04:56:30;;;;;;;111.13;36.17;;;;;;;;;;6228940;28;20116;-58
2022/03/02 04:59:31;;;;;;;102.90;37.75;;;;;;;;;;6230973;28;20049;-61
2022/03/02 05:02:31;;;;;;;99.35;35.80;;;;;;;;;;6231473;28;20078;-59
2022/03/02 05:05:37;;;;;;;104.57;36.30;;;;;;;;;;6234730;28;20077;-58
2022/03/02 05:08:38;;;;;;;100.35;36.70;;;;;;;;;;6234132;28;20041;-61
2022/03/02 05:11:38;;;;;;;98.25;36.95;;;;;;;;;;6230698;28;20501;-61
2022/03/02 05:14:39;;;;;;;102.93;35.45;;;;;;;;;;6229753;28;20045;-59
2022/03/02 05:17:41;;;;;;;107.30;34.85;;;;;;;;;;6227126;28;20133;-59
2022/03/02 05:20:41;;;;;;;90.17;35.53;;;;;;;;;;6230032;28;20049;-58
2022/03/02 05:23:42;;;;;;;103.15;37.67;;;;;;;;;;6239823;28;20068;-59
2022/03/02 05:26:43;;;;;;;108.53;39.28;;;;;;;;;;6252509;28;20041;-59
2022/03/02 05:29:43;;;;;;;99.88;35.42;;;;;;;;;;6260455;28;20048;-59
2022/03/02 05:32:44;;;;;;;90.88;36.13;;;;;;;;;;6265880;28;20173;-58
2022/03/02 05:35:45;;;;;;;105.10;38.03;;;;;;;;;;6263226;28;20051;-59
2022/03/02 05:38:45;;;;;;;105.55;36.28;;;;;;;;;;6254342;28;20129;-59
2022/03/02 05:41:46;;;;;;;88.53;33.50;;;;;;;;;;6237181;28;20482;-58
2022/03/02 05:44:47;;;;;;;97.55;37.92;;;;;;;;;;6236493;28;20042;-59
2022/03/02 05:47:48;;;;;;;92.72;35.80;;;;;;;;;;6240751;28;20142;-67
2022/03/02 05:50:48;;;;;;;105.55;38.25;;;;;;;;;;6241468;28;20091;-60
2022/03/02 05:53:49;;;;;;;107.32;39.40;;;;;;;;;;6233247;28;20080;-57
2022/03/02 05:56:49;;;;;;;107.20;38.55;;;;;;;;;;6230656;28;20073;-59
2022/03/02 05:59:51;;;;;;;115.90;39.15;;;;;;;;;;6229938;28;20424;-60
2022/03/02 06:02:51;;;;;;;107.53;37.88;;;;;;;;;;6233542;28;20133;-59
2022/03/02 06:05:52;;;;;;;105.85;39.83;;;;;;;;;;6229653;28;20065;-60
2022/03/02 06:08:53;;;;;;;97.75;38.38;;;;;;;;;;6230437;28;20481;-60
2022/03/02 06:11:54;;;;;;;106.18;37.35;;;;;;;;;;6232972;28;20047;-60
2022/03/02 06:14:54;;;;;;;105.50;39.17;;;;;;;;;;6230972;28;20052;-61
2022/03/02 06:17:56;;;;;;;100.22;38.03;;;;;;;;;;6230984;28;20061;-61
2022/03/02 06:21:01;;;;;;;104.70;38.97;;;;;;;;;;6229491;28;20037;-61
2022/03/02 06:24:02;;;;;;;106.32;40.03;;;;;;;;;;6232012;28;21100;-60
2022/03/02 06:27:02;;;;;;;103.85;40.15;;;;;;;;;;6231856;28;20172;-61
2022/03/02 06:30:05;;;;;;;109.85;39.65;;;;;;;;;;6223720;28;20136;-60
2022/03/02 06:33:05;;;;;;;;;;;;;;;;;;6232328;28;20448;-58
2022/03/02 06:36:07;;;;;;;104.35;37.22;;;;;;;;;;6250919;28;20059;-59
2022/03/02 06:39:09;;;;;;;92.60;38.22;;;;;;;;;;6266686;28;20053;-60
2022/03/02 06:42:20;;;;;;;103.70;38.60;;;;;;;;;;6257266;28;20404;-58
2022/03/02 06:45:27;;;;;;;95.53;36.20;;;;;;;;;;6257373;28;20399;-61
2022/03/02 06:48:41;;;;;;;113.72;39.53;;;;;;;;;;6241104;28;20544;-59
2022/03/02 06:51:43;;;;;;;95.10;34.92;;;;;;;;;;6232162;28;20445;-59
2022/03/02 06:54:47;;;;;;;99.63;36.65;;;;;;;;;;6233510;28;20119;-59
2022/03/02 06:57:54;;;;;;;94.95;36.58;;;;;;;;;;6235051;28;20057;-59
2022/03/02 07:00:56;;;;;;;97.30;35.30;;;;;;;;;;6230802;28;20140;-60
2022/03/02 07:03:58;;;;;;;98.57;35.67;;;;;;;;;;6235038;28;20099;-60
2022/03/02 07:07:01;;;;;;;101.65;37.72;;;;;;;;;;6231300;28;20057;-60
2022/03/02 07:10:04;;;;;;;110.25;38.53;;;;;;;;;;6236694;28;20145;-61
2022/03/02 07:13:07;;;;;;;99.95;38.45;;;;;;;;;;6231204;28;20046;-61
2022/03/02 07:16:08;;;;;;;106.05;38.20;;;;;;;;;;6234832;28;20477;-59
2022/03/02 07:19:08;;;;;;;118.63;40.75;;;;;;;;;;6235953;28;20456;-60
2022/03/02 07:22:16;;;;;;;124.03;41.50;;;;;;;;;;6230347;28;20152;-61
2022/03/02 07:25:33;;;;;;;117.60;40.30;;;;;;;;;;6236023;28;20092;-60
2022/03/02 07:28:38;;;;;;;107.45;41.20;;;;;;;;;;6234726;28;20048;-60
2022/03/02 07:31:41;;;;;;;105.55;38.80;;;;;;;;;;6234338;28;20497;-61
2022/03/02 07:34:42;;;;;;;128.77;43.47;;;;;;;;;;6233765;28;20037;-60
2022/03/02 07:37:44;;;;;;;109.60;37.47;;;;;;;;;;6232296;28;20042;-60
2022/03/02 07:40:45;;;;;;;110.60;38.42;;;;;;;;;;6234929;28;20046;-61
2022/03/02 07:43:47;;;;;;;125.50;41.47;;;;;;;;;;6231928;28;20052;-59
2022/03/02 07:46:48;;;;;;;102.18;38.10;;;;;;;;;;6253828;28;20049;-61
2022/03/02 07:49:49;;;;;;;115.20;42.13;;;;;;;;;;6268627;28;20045;-60
2022/03/02 07:52:51;;;;;;;98.88;38.17;;;;;;;;;;6265528;28;20084;-62
2022/03/02 07:55:53;;;;;;;126.97;45.55;;;;;;;;;;6268333;28;20391;-59
2022/03/02 07:58:59;;;;;;;111.68;44.08;;;;;;;;;;6265811;28;20072;-59
2022/03/02 08:02:02;;;;;;;108.57;42.85;;;;;;;;;;6265073;28;20140;-61
2022/03/02 08:05:04;;;;;;;108.25;41.78;;;;;;;;;;6263595;28;20091;-61
2022/03/02 08:08:06;;;;;;;109.57;43.13;;;;;;;;;;6252169;28;21804;-61
2022/03/02 08:11:06;;;;;;;116.10;44.63;;;;;;;;;;6236379;28;20455;-61
2022/03/02 08:14:07;;;;;;;112.45;42.83;;;;;;;;;;6231450;28;20068;-61
2022/03/02 08:17:08;;;;;;;98.03;39.03;;;;;;;;;;6236011;28;20068;-62
2022/03/02 08:20:10;;;;;;;85.55;33.25;;;;;;;;;;6242244;28;20507;-61
2022/03/02 08:23:11;;;;;;;93.80;35.28;;;;;;;;;;6260712;28;20049;-61
2022/03/02 08:26:13;;;;;;;90.13;33.83;;;;;;;;;;6267444;28;20047;-61
2022/03/02 08:29:13;;;;;;;88.65;34.17;;;;;;;;;;6239242;28;20060;-61
2022/03/02 08:32:15;;;;;;;94.75;37.35;;;;;;;;;;6235152;28;20049;-61
2022/03/02 08:35:16;;;;;;;95.78;34.25;;;;;;;;;;6227342;28;20441;-61
2022/03/02 08:38:17;;;;;;;90.45;33.95;;;;;;;;;;6255279;28;20045;-62
2022/03/02 08:41:19;;;;;;;93.90;35.03;;;;;;;;;;6229282;28;20065;-61
2022/03/02 08:44:21;;;;;;;83.18;32.95;;;;;;;;;;6226634;28;20474;-60
2022/03/02 08:47:25;;;;;;;84.95;31.45;;;;;;;;;;6234661;28;20140;-61
2022/03/02 08:50:27;;;;;;;70.22;26.40;;;;;;;;;;6242723;28;20060;-61
2022/03/02 08:53:30;;;;;;;81.70;28.63;;;;;;;;;;6236686;28;20500;-61
2022/03/02 08:56:35;;;;;;;58.65;26.80;;;;;;;;;;6260442;28;20046;-61
2022/03/02 08:59:39;;;;;;;63.25;25.85;;;;;;;;;;6261686;28;20500;-59
2022/03/02 09:02:40;;;;;;;68.90;27.85;;;;;;;;;;6233169;28;20077;-60
2022/03/02 09:05:42;;;;;;;61.15;24.73;;;;;;;;;;6231772;28;20053;-60
2022/03/02 09:08:43;;;;;;;63.10;25.25;;;;;;;;;;6233016;28;20157;-61
2022/03/02 09:11:44;;;;;;;72.72;28.70;;;;;;;;;;6235457;28;20059;-61
2022/03/02 09:14:47;;;;;;;71.15;28.65;;;;;;;;;;6230450;28;20050;-59
2022/03/02 09:17:49;;;;;;;64.65;24.80;;;;;;;;;;6234878;28;20049;-62
2022/03/02 09:20:58;;;;;;;75.22;29.00;;;;;;;;;;6235947;28;20061;-61
2022/03/02 09:23:59;;;;;;;56.17;23.27;;;;;;;;;;6227603;28;20140;-61
2022/03/02 09:27:01;;;;;;;65.05;24.60;;;;;;;;;;6232505;28;20076;-59
2022/03/02 09:30:08;;;;;;;59.78;22.35;;;;;;;;;;6232554;28;20169;-61
2022/03/02 09:33:13;;;;;;;56.33;22.80;;;;;;;;;;6231624;28;20045;-62
2022/03/02 09:36:19;;;;;;;55.78;21.95;;;;;;;;;;6228715;28;20136;-60
2022/03/02 09:39:20;;;;;;;48.55;19.58;;;;;;;;;;6231469;28;20560;-61
2022/03/02 09:42:26;;;;;;;63.63;23.20;;;;;;;;;;6223266;28;20045;-60
2022/03/02 09:45:30;;;;;;;47.13;18.77;;;;;;;;;;6241155;28;20148;-61
2022/03/02 09:48:40;;;;;;;43.10;18.05;;;;;;;;;;6241113;28;20044;-61
2022/03/02 09:51:42;;;;;;;39.05;15.43;;;;;;;;;;6235147;28;20056;-61
2022/03/02 09:54:44;;;;;;;31.93;12.60;;;;;;;;;;6232175;28;20045;-61
2022/03/02 09:57:47;;;;;;;28.67;12.25;;;;;;;;;;6228571;28;20085;-61
2022/03/02 10:00:48;;;;;;;29.33;11.88;;;;;;;;;;6230067;28;20053;-61
2022/03/02 10:03:51;;;;;;;37.42;14.10;;;;;;;;;;6232719;28;20140;-62
2022/03/02 10:07:26;;;;;;;;;;;;;;;;;;6226756;28;20049;-62
2022/03/02 10:10:22;;;;;;;31.90;12.48;;;;;;;;;;6236926;28;20454;-60
2022/03/02 10:13:22;;;;;;;32.75;12.55;;;;;;;;;;6233522;28;20054;-61
2022/03/02 10:16:25;;;;;;;28.27;12.27;;;;;;;;;;6234975;28;20103;-60
2022/03/02 10:19:28;;;;;;;28.50;12.38;;;;;;;;;;6233142;28;20091;-62
2022/03/02 10:22:54;;;;;;;24.98;8.93;;;;;;;;;;6236780;28;20049;-61
2022/03/02 10:26:22;;;;;;;20.98;8.68;;;;;;;;;;6234167;28;20450;-61
2022/03/02 10:29:31;;;;;;;21.40;8.23;;;;;;;;;;6236109;28;20053;-61
2022/03/02 10:32:35;;;;;;;23.40;8.77;;;;;;;;;;6232870;28;20068;-61
2022/03/02 10:35:38;;;;;;;20.60;9.00;;;;;;;;;;6233232;28;20516;-59
2022/03/02 10:38:38;;;;;;;24.67;9.57;;;;;;;;;;6239409;28;20038;-61
2022/03/02 10:41:43;;;;;;;23.00;9.05;;;;;;;;;;6257742;28;20041;-61
2022/03/02 10:44:50;;;;;;;23.73;8.95;;;;;;;;;;6265970;28;20132;-61
2022/03/02 10:47:58;;;;;;;20.17;9.50;;;;;;;;;;6262980;28;20083;-61
2022/03/02 10:50:59;;;;;;;21.77;10.65;;;;;;;;;;6267799;28;20075;-62
2022/03/02 10:54:05;;;;;;;25.30;9.77;;;;;;;;;;6265804;28;20112;-61
2022/03/02 10:57:11;;;;;;;24.77;11.05;;;;;;;;;;6240258;28;20077;-60
2022/03/02 11:00:14;;;;;;;24.13;10.80;;;;;;;;;;6234776;28;20131;-61
2022/03/02 11:03:15;;;;;;;23.52;10.13;;;;;;;;;;6229817;28;20053;-62
2022/03/02 11:06:19;;;;;;;30.05;11.93;;;;;;;;;;6235454;28;20061;-61
2022/03/02 11:09:20;;;;;;;23.35;9.95;;;;;;;;;;6231372;28;20045;-61
2022/03/02 11:12:23;;;;;;;23.23;10.57;;;;;;;;;;6236674;28;20049;-61
2022/03/02 11:15:23;;;;;;;28.38;11.27;;;;;;;;;;6232153;28;20481;-61
2022/03/02 11:18:49;;;;;;;23.20;9.38;;;;;;;;;;6229399;28;20140;-61
2022/03/02 11:21:50;;;;;;;38.72;11.98;;;;;;;;;;6232454;28;20045;-61
2022/03/02 11:24:58;;;;;;;23.00;9.65;;;;;;;;;;6229458;28;20163;-60
2022/03/02 11:28:05;;;;;;;24.52;10.48;;;;;;;;;;6232802;28;20045;-61
2022/03/02 11:31:08;;;;;;;24.35;9.90;;;;;;;;;;6235984;28;20065;-60
2022/03/02 11:34:13;;;;;;;21.90;9.70;;;;;;;;;;6232397;28;20050;-62
2022/03/02 11:37:14;;;;;;;26.45;10.77;;;;;;;;;;6229305;28;20053;-61
2022/03/02 11:40:15;;;;;;;23.75;10.23;;;;;;;;;;6234555;28;20671;-61
2022/03/02 11:43:22;;;;;;;20.80;8.82;;;;;;;;;;6233416;28;20758;-62
2022/03/02 11:46:23;;;;;;;24.15;9.63;;;;;;;;;;6231168;28;20053;-61
2022/03/02 11:49:47;;;;;;;27.08;10.02;;;;;;;;;;6232987;28;20088;-61
2022/03/02 11:52:47;;;;;;;23.00;9.50;;;;;;;;;;6235615;28;20183;-61
2022/03/02 11:55:50;;;;;;;26.58;9.75;;;;;;;;;;6233153;28;20049;-61
2022/03/02 11:58:58;;;;;;;18.25;8.95;;;;;;;;;;6234616;28;20053;-61
2022/03/02 12:01:58;;;;;;;21.02;8.93;;;;;;;;;;6236286;28;20084;-61
2022/03/02 12:05:05;;;;;;;18.85;9.52;;;;;;;;;;6256213;28;20045;-61
2022/03/02 12:08:13;;;;;;;22.02;9.30;;;;;;;;;;6263800;28;20084;-61
2022/03/02 12:11:23;;;;;;;23.67;8.95;;;;;;;;;;6267779;28;20045;-61
2022/03/02 12:14:23;;;;;;;25.98;10.07;;;;;;;;;;6259333;28;20045;-61
2022/03/02 12:17:30;;;;;;;25.40;10.77;;;;;;;;;;6266103;28;20071;-61
2022/03/02 12:20:33;;;;;;;25.45;10.68;;;;;;;;;;6263322;28;20060;-61
2022/03/02 12:23:35;;;;;;;26.83;10.63;;;;;;;;;;6265163;28;20064;-61
2022/03/02 12:26:38;;;;;;;27.25;11.77;;;;;;;;;;6268160;28;20052;-61
2022/03/02 12:29:40;;;;;;;27.67;11.07;;;;;;;;;;6258112;28;20049;-61
2022/03/02 12:32:45;;;;;;;;;;;;;;;;;;6264256;28;20049;-61
2022/03/02 12:35:46;;;;;;;22.40;9.80;;;;;;;;;;6264430;28;19927;-61
2022/03/02 12:38:47;;;;;;;28.50;11.68;;;;;;;;;;6264949;28;20056;-61
2022/03/02 12:41:48;;;;;;;24.27;10.88;;;;;;;;;;6259980;28;20132;-61
2022/03/02 12:44:54;;;;;;;34.90;14.00;;;;;;;;;;6264665;28;20076;-61
2022/03/02 12:47:55;;;;;;;22.33;9.90;;;;;;;;;;6266841;28;20549;-60
2022/03/02 12:50:56;;;;;;;23.00;9.30;;;;;;;;;;6243094;28;20453;-61
2022/03/02 12:53:57;;;;;;;26.33;10.85;;;;;;;;;;6234372;28;20050;-61
2022/03/02 12:57:00;;;;;;;25.05;10.82;;;;;;;;;;6229991;28;20049;-62
2022/03/02 13:00:04;;;;;;;28.30;12.77;;;;;;;;;;6231118;28;20447;-61
2022/03/02 13:03:10;;;;;;;31.27;11.98;;;;;;;;;;6228589;28;20045;-61
2022/03/02 13:06:19;;;;;;;32.00;12.57;;;;;;;;;;6229613;28;20056;-61
2022/03/02 13:09:27;;;;;;;24.85;10.68;;;;;;;;;;6233703;28;20527;-61
2022/03/02 13:12:29;;;;;;;26.70;10.63;;;;;;;;;;6232827;28;20049;-62
2022/03/02 13:15:30;;;;;;;26.88;11.50;;;;;;;;;;6228794;28;20071;-61
2022/03/02 13:18:38;;;;;;;25.73;10.52;;;;;;;;;;6229535;28;20425;-61
2022/03/02 13:21:39;;;;;;;27.83;11.35;;;;;;;;;;6240935;28;20071;-61
2022/03/02 13:24:45;;;;;;;26.45;10.43;;;;;;;;;;6245360;28;20045;-61
2022/03/02 13:28:11;;;;;;;31.27;11.77;;;;;;;;;;6261908;28;20510;-61
2022/03/02 13:31:18;;;;;;;27.65;11.43;;;;;;;;;;6274789;28;20130;-62
2022/03/02 13:34:21;;;;;;;23.95;10.45;;;;;;;;;;6260332;28;20088;-62
2022/03/02 13:37:21;;;;;;;28.05;10.93;;;;;;;;;;6263248;28;20052;-61
2022/03/02 13:40:34;;;;;;;21.35;9.50;;;;;;;;;;6260787;28;20507;-62
2022/03/02 13:43:37;;;;;;;25.30;9.77;;;;;;;;;;6260666;28;20179;-62
2022/03/02 13:46:38;;;;;;;27.60;10.43;;;;;;;;;;6226953;28;20102;-61
2022/03/02 13:49:53;;;;;;;27.13;10.55;;;;;;;;;;6237231;28;20568;-62
2022/03/02 13:52:59;;;;;;;22.65;9.48;;;;;;;;;;6242525;28;20045;-61
2022/03/02 13:56:09;;;;;;;31.60;11.73;;;;;;;;;;6234498;28;20083;-61
2022/03/02 13:59:15;;;;;;;29.52;10.02;;;;;;;;;;6222644;28;20132;-61
2022/03/02 14:02:16;;;;;;;24.35;10.32;;;;;;;;;;6226383;28;20140;-62
2022/03/02 14:05:18;;;;;;;24.75;10.02;;;;;;;;;;6226509;28;20061;-59
2022/03/02 14:08:19;;;;;;;23.23;9.68;;;;;;;;;;6227154;28;20054;-59
2022/03/02 14:11:44;;;;;;;25.50;11.68;;;;;;;;;;6235640;28;20650;-60
2022/03/02 14:14:45;;;;;;;30.02;11.15;;;;;;;;;;6222319;28;20052;-62
2022/03/02 14:17:46;;;;;;;28.05;10.68;;;;;;;;;;6229709;28;20152;-62
2022/03/02 14:20:46;;;;;;;24.45;9.95;;;;;;;;;;6231767;28;20374;-62
2022/03/02 14:23:51;;;;;;;28.02;11.38;;;;;;;;;;6231080;28;20164;-62
2022/03/02 14:26:57;;;;;;;24.27;9.90;;;;;;;;;;6230565;28;20050;-61
2022/03/02 14:30:04;;;;;;;22.70;9.68;;;;;;;;;;6231522;28;20060;-61
2022/03/02 14:33:12;;;;;;;20.00;8.77;;;;;;;;;;6232927;28;20057;-62
2022/03/02 14:36:16;;;;;;;26.42;10.00;;;;;;;;;;6236083;28;20045;-61
2022/03/02 14:39:17;;;;;;;43.30;13.10;;;;;;;;;;6232387;28;20471;-62
2022/03/02 14:42:18;;;;;;;22.63;9.68;;;;;;;;;;6233472;28;20076;-62
2022/03/02 14:45:29;;;;;;;24.17;9.70;;;;;;;;;;6234453;28;20053;-62
2022/03/02 14:48:33;;;;;;;39.30;12.45;;;;;;;;;;6233190;28;20045;-61
2022/03/02 14:51:34;;;;;;;26.00;9.25;;;;;;;;;;6234987;28;20045;-60
2022/03/02 14:54:34;;;;;;;37.05;11.93;;;;;;;;;;6232731;28;20741;-61
2022/03/02 14:57:38;;;;;;;31.73;12.48;;;;;;;;;;6238346;28;20154;-60
2022/03/02 15:00:48;;;;;;;24.98;10.35;;;;;;;;;;6237521;28;20109;-60
2022/03/02 15:04:02;;;;;;;25.55;10.65;;;;;;;;;;6241127;28;20050;-60
2022/03/02 15:07:03;;;;;;;24.98;9.68;;;;;;;;;;6238522;28;20073;-60
2022/03/02 15:10:25;;;;;;;25.45;10.40;;;;;;;;;;6235185;28;20136;-62
2022/03/02 15:17:03;;;;;;;31.77;11.35;;;;;;;;;;6235526;28;20052;-61
2022/03/02 15:20:07;;;;;;;43.97;15.13;;;;;;;;;;6232640;28;20053;-61
2022/03/02 15:23:11;;;;;;;27.00;10.45;;;;;;;;;;6234594;28;20061;-60
2022/03/02 15:26:12;;;;;;;29.58;11.20;;;;;;;;;;6234567;28;20049;-61
2022/03/02 15:29:15;;;;;;;28.45;10.73;;;;;;;;;;6233760;28;20053;-61
2022/03/02 15:32:20;;;;;;;31.92;12.50;;;;;;;;;;6237366;28;20110;-62
2022/03/02 15:35:24;;;;;;;31.55;12.35;;;;;;;;;;6232347;28;20796;-60
2022/03/02 15:38:25;;;;;;;30.42;12.05;;;;;;;;;;6232226;28;20103;-61
2022/03/02 15:41:27;;;;;;;37.65;14.25;;;;;;;;;;6250060;28;20057;-61
2022/03/02 15:44:29;;;;;;;32.15;13.02;;;;;;;;;;6226613;28;20057;-61
2022/03/02 15:47:49;;;;;;;38.22;16.70;;;;;;;;;;6230802;28;20064;-60
2022/03/02 15:50:53;;;;;;;43.80;17.52;;;;;;;;;;6233249;28;20049;-60
2022/03/02 15:54:07;;;;;;;88.40;28.73;;;;;;;;;;6235321;28;20153;-60
2022/03/02 15:57:08;;;;;;;57.13;20.05;;;;;;;;;;6233601;28;20424;-61
2022/03/02 16:00:11;;;;;;;62.90;21.85;;;;;;;;;;6232887;28;20053;-58
2022/03/02 16:03:23;;;;;;;66.00;22.60;;;;;;;;;;6229029;28;20057;-58
2022/03/02 16:06:24;;;;;;;55.05;19.38;;;;;;;;;;6231124;28;20060;-59
2022/03/02 16:09:25;;;;;;;33.23;15.07;;;;;;;;;;6232998;28;20053;-70
2022/03/02 16:12:45;;;;;;;48.80;17.92;;;;;;;;;;6234128;28;20042;-67
2022/03/02 16:15:51;;;;;;;38.40;16.08;;;;;;;;;;6235245;28;20040;-64
2022/03/02 16:19:03;;;;;;;42.50;17.40;;;;;;;;;;6228430;28;20072;-66
2022/03/02 16:22:05;;;;;;;50.90;18.63;;;;;;;;;;6235017;28;20057;-61
2022/03/02 16:25:26;;;;;;;67.95;23.10;;;;;;;;;;6234138;28;20053;-60
2022/03/02 16:28:38;;;;;;;84.90;25.90;;;;;;;;;;6233176;28;20053;-62
2022/03/02 16:31:39;;;;;;;109.90;32.22;;;;;;;;;;6233593;28;20497;-62
2022/03/02 16:34:40;;;;;;;113.68;34.10;;;;;;;;;;6234134;28;20052;-63
2022/03/02 16:37:42;;;;;;;80.72;25.45;;;;;;;;;;6233775;28;20145;-59
2022/03/02 16:40:43;;;;;;;147.82;42.97;;;;;;;;;;6232036;28;20576;-61
2022/03/02 16:43:44;;;;;;;81.07;28.27;;;;;;;;;;6233049;28;20048;-61
2022/03/02 16:46:45;;;;;;;100.55;35.35;;;;;;;;;;6233090;28;20404;-60
2022/03/02 16:49:46;;;;;;;96.63;34.83;;;;;;;;;;6230786;28;20116;-60
2022/03/02 16:52:48;;;;;;;92.50;37.10;;;;;;;;;;6234037;28;20048;-64
2022/03/02 16:55:49;;;;;;;75.13;33.55;;;;;;;;;;6232062;28;20572;-63
2022/03/02 16:58:49;;;;;;;77.15;30.10;;;;;;;;;;6232140;28;20053;-68
2022/03/02 17:01:50;;;;;;;79.60;31.40;;;;;;;;;;6230563;28;20037;-64
2022/03/02 17:04:53;;;;;;;77.20;31.25;;;;;;;;;;6231062;28;20076;-65
2022/03/02 17:07:54;;;;;;;75.30;28.38;;;;;;;;;;6232477;28;20057;-65
2022/03/02 17:10:55;;;;;;;74.43;28.90;;;;;;;;;;6235150;28;20049;-64
2022/03/02 17:13:55;;;;;;;81.60;27.75;;;;;;;;;;6235480;28;20053;-65
2022/03/02 17:16:57;;;;;;;91.60;31.08;;;;;;;;;;6234676;28;20053;-64
2022/03/02 17:19:58;;;;;;;93.78;32.85;;;;;;;;;;6231798;28;20115;-60
2022/03/02 17:22:59;;;;;;;106.45;33.20;;;;;;;;;;6234225;28;20054;-63
2022/03/02 17:26:00;;;;;;;86.72;29.23;;;;;;;;;;6234657;28;20053;-61
2022/03/02 17:29:02;;;;;;;83.75;29.15;;;;;;;;;;6231264;28;20045;-64
2022/03/02 17:32:03;;;;;;;80.00;32.35;;;;;;;;;;6227863;28;20061;-63
2022/03/02 17:35:35;;;;;;;75.90;32.30;;;;;;;;;;6232466;28;20053;-63
2022/03/02 17:38:36;;;;;;;66.72;25.10;;;;;;;;;;6223787;28;20053;-63
2022/03/02 17:41:40;;;;;;;83.05;28.80;;;;;;;;;;6231405;28;20053;-63
2022/03/02 17:44:41;;;;;;;75.38;29.02;;;;;;;;;;6230486;28;20061;-62